• Join FlightAware (Why Join?)
  • Login
  • US Flag 
10:31PM EDT


 

Airport Tracker/Info


-or-


 

Live Flight TrackerFlight Track Log ✈ UPS1337 ✈ 26-Feb-2014 ✈ KPIE - KSDF

Flight Track Log - Related Links

Times and Time Zones

All times are in EST time to prevent confusion due to time zone crossing. See the UPS1337 flight status page for this flight to view local times or setup timezone preferences in your user account.

Time Position Orientation Groundspeed Altitude Reporting Facility
EST Latitude Longitude Course Direction KTS MPH feet Rate Location/Type
09:40PM 27.9167 -82.6833 12° North 171 197 900  Level Tampa TRACON
09:41PM 27.9833 -82.6667 12° North 245 282 3,400 1,560 Climbing Tampa TRACON
09:42PM 28.0667 -82.6500 10° North 284 327 4,500 1,800 Climbing Tampa TRACON
09:48PM 28.5778 -82.6164 North 419 482 16,300 2,100 Climbing FlightAware ADS-B (KMCO)
09:51PM 28.9821 -82.6031 North 463 533 23,800 2,220 Climbing FlightAware ADS-B (KMCO)
09:52PM 29.1001 -82.5992 North 475 547 25,700 2,100 Climbing FlightAware ADS-B (KMCO)
09:53PM 29.1792 -82.5964 North 469 540 27,000 2,220 Climbing FlightAware ADS-B (KMCO)
09:55PM 29.4536 -82.5874 North 446 513 31,800 2,040 Climbing FlightAware ADS-B (KMCO)
09:55PM 29.5165 -82.5854 North 446 513 32,500 1,020 Climbing FlightAware ADS-B (KMCO)
09:56PM 29.5989 -82.5828 North 454 522 33,000 420 Climbing FlightAware ADS-B (KMCO)
09:56PM 29.6636 -82.5807 North 454 522 33,000  Level FlightAware ADS-B (KMCO)
09:57PM 29.7273 -82.5785 North 451 519 33,000  Level FlightAware ADS-B (KMCO)
09:57PM 29.7915 -82.5764 North 446 513 33,000  Level FlightAware ADS-B (KMCO)
09:58PM 29.8729 -82.5736 North 442 509 33,000  Level FlightAware ADS-B (KMCO)
09:59PM 29.9358 -82.5715 North 442 509 33,000  Level FlightAware ADS-B (KMCO)
09:59PM 30.0169 -82.5691 North 446 513 33,000  Level FlightAware ADS-B (KMCO)
10:00PM 30.1012 -82.5662 North 445 512 33,000  Level FlightAware ADS-B (KMCO)
10:00PM 30.1625 -82.5641 North 445 512 33,000  Level FlightAware ADS-B (KMCO)
10:01PM 30.2265 -82.5620 North 445 512 33,000  Level FlightAware ADS-B (KMCO)
10:02PM 30.3501 -82.5579 North 444 511 33,000  Level FlightAware ADS-B (KMCO)
10:03PM 30.4961 -82.5530 North 444 511 33,000  Level FlightAware ADS-B (KMCO)
10:04PM 30.5539 -82.5509 North 445 512 33,000  Level FlightAware ADS-B (KMCO)
10:05PM 30.6940 -82.5706 348° North 416 479 33,000  Level FlightAware ADS-B (KMCO)
10:05PM 30.7679 -82.5888 348° North 418 481 33,000  Level FlightAware ADS-B (KMCO)
10:06PM 30.8467 -82.6094 348° North 422 486 33,000  Level Jacksonville Center
10:07PM 30.9594 -82.6381 348° North 417 480 33,000  Level Jacksonville Center
10:08PM 31.0744 -82.6669 348° North 411 473 33,000  Level Jacksonville Center
10:09PM 31.1850 -82.6911 349° North 411 473 33,000  Level Jacksonville Center
10:10PM 31.3000 -82.7150 350° North 411 473 33,000  Level Jacksonville Center
10:12PM 31.4833 -82.7628 347° North 421 484 33,000  Level Atlanta Center
10:13PM 31.5922 -82.7956 346° North 416 479 33,000  Level Atlanta Center
10:14PM 31.7011 -82.8331 344° North 406 467 33,000  Level Atlanta Center
10:15PM 31.8100 -82.8706 344° North 401 461 33,000  Level Atlanta Center
10:16PM 31.9292 -82.9083 345° North 406 467 33,000  Level Atlanta Center
10:17PM 32.0381 -82.9436 345° North 406 467 33,000  Level Atlanta Center
10:18PM 32.1469 -82.9839 343° North 406 467 33,000  Level Atlanta Center
10:19PM 32.2558 -83.0197 344° North 406 467 33,000  Level Atlanta Center
10:20PM 32.3667 -83.0553 345° North 406 467 33,000  Level Atlanta Center
10:21PM 32.4756 -83.0933 344° North 400 460 33,000  Level Atlanta Center
10:22PM 32.5864 -83.1292 345° North 400 460 33,000  Level Atlanta Center
10:23PM 32.6933 -83.1675 343° North 400 460 33,000  Level Atlanta Center
10:24PM 32.7769 -83.1964 344° North 400 460 33,000  Level Atlanta Center
10:25PM 32.8919 -83.2347 344° North 395 455 33,000  Level Atlanta Center
10:26PM 33.0092 -83.2758 344° North 402 463 33,000  Level Atlanta Center
10:27PM 33.1033 -83.3097 343° North 402 463 33,000  Level Atlanta Center
10:28PM 33.2100 -83.3461 344° North 397 457 33,000  Level Atlanta Center
10:29PM 33.3144 -83.3800 345° North 397 457 33,000  Level Atlanta Center
10:30PM 33.4192 -83.4167 344° North 397 457 33,000  Level Atlanta Center
10:31PM 33.5278 -83.4533 344° North 397 457 33,000  Level Atlanta Center
10:32PM 33.6344 -83.4875 345° North 397 457 33,000 -60 Level Atlanta Center
10:37PM 34.2449 -83.7007 343° North 405 466 32,900 -120 Descending FlightAware ADS-B (KDZJ)
10:38PM 34.3167 -83.7262 344° North 417 480 32,300 -720 Descending FlightAware ADS-B (KDZJ)
10:39PM 34.3841 -83.7495 344° North 406 467 32,000 -240 Descending FlightAware ADS-B (KDZJ)
10:39PM 34.4635 -83.7774 343° North 405 466 32,000  Level FlightAware ADS-B (KDZJ)
10:40PM 34.5385 -83.8042 343° North 407 468 32,000  Level FlightAware ADS-B (KDZJ)
10:41PM 34.6125 -83.8306 344° North 418 481 32,000  Level FlightAware ADS-B (KDZJ)
10:41PM 34.6870 -83.8569 344° North 419 482 32,000  Level FlightAware ADS-B (KDZJ)
10:42PM 34.7605 -83.8835 344° North 419 482 32,000  Level FlightAware ADS-B (KDZJ)
10:43PM 34.8327 -83.9088 344° North 418 481 32,000  Level FlightAware ADS-B (KDZJ)
10:43PM 34.9112 -83.9371 344° North 417 480 32,000  Level FlightAware ADS-B (KDZJ)
10:44PM 34.9709 -83.9583 344° North 421 484 32,000  Level FlightAware ADS-B (KDZJ)
10:45PM 35.0614 -83.9909 343° North 420 483 32,000  Level FlightAware ADS-B (KDZJ)
10:45PM 35.1390 -84.0190 343° North 417 480 32,000  Level FlightAware ADS-B (KDZJ)
10:46PM 35.2064 -84.0429 344° North 417 480 32,000  Level FlightAware ADS-B (KDZJ)
10:47PM 35.3164 -84.0820 343° North 405 466 32,000  Level FlightAware ADS-B (KDZJ)
10:48PM 35.4011 -84.1153 343° North 419 482 32,000  Level Atlanta Center
10:49PM 35.5117 -84.1561 343° North 419 482 32,000 -180 Level Atlanta Center
10:55PM 35.5168 -84.1553 344° North 421 484 30,800 -300 Descending FlightAware ADS-B (KMDQ)
10:56PM 36.2575 -84.4269 344° North 413 475 30,100 -480 Descending Indianapolis Center
10:57PM 36.3650 -84.4669 343° North 409 471 30,000 -60 Descending Indianapolis Center
10:58PM 36.4731 -84.5058 344° North 409 471 30,000  Level Indianapolis Center
10:59PM 36.5794 -84.5467 343° North 405 466 30,000 -540 Level Indianapolis Center
11:00PM 36.6867 -84.5867 343° North 405 466 29,000 -1,680 Descending Indianapolis Center
11:01PM 36.7917 -84.6267 343° North 400 460 26,600 -2,040 Descending Indianapolis Center
11:06PM 37.2936 -84.7913 North 324 373 16,300 -1,980 Descending FlightAware ADS-B (KBRY)
11:06PM 37.3328 -84.7909 North 327 376 15,400 -1,140 Descending FlightAware ADS-B (KBRY)
11:11PM 37.6794 -84.9868 313° West 285 328 10,600 -1,020 Descending FlightAware ADS-B (KBRY)
11:12PM 37.7319 -85.0604 312° West 271 312 9,900 -600 Descending FlightAware ADS-B (KBRY)
11:13PM 37.7661 -85.1298 295° West 241 277 9,400 -780 Descending FlightAware ADS-B (KBRY)
11:14PM 37.7991 -85.2190 295° West 233 268 8,300 -960 Descending FlightAware ADS-B (KBRY)
11:15PM 37.8247 -85.2904 294° West 228 262 7,400 -960 Descending FlightAware ADS-B (KBRY)
11:16PM 37.8519 -85.3648 295° West 230 265 6,400 -1,020 Descending FlightAware ADS-B (KBRY)
11:17PM 37.8781 -85.4361 295° West 232 267 5,400 -1,020 Descending FlightAware ADS-B (KBRY)
11:18PM 37.9053 -85.5109 294° West 228 262 4,400 -1,020 Descending FlightAware ADS-B (KBRY)
11:19PM 37.9161 -85.5412 295° West 232 267 4,000 -1,020 Descending FlightAware ADS-B
11:19PM 37.9318 -85.5845 294° West 224 258 3,400 -660 Descending FlightAware ADS-B (KBRY)
11:20PM 37.9577 -85.6559 299° West 225 259 3,000 -240 Descending FlightAware ADS-B (KBRY)
11:21PM 38.0093 -85.7014 North 228 262 3,000 -300 Level FlightAware ADS-B (KBRY)
11:22PM 38.0624 -85.7078 343° North 185 213 2,500 -660 Descending FlightAware ADS-B (KBRY)
11:23PM 38.1109 -85.7233 345° North 153 176 1,700 -900 Descending FlightAware ADS-B (KBRY)
11:24PM 38.1170 -85.7254 345° North 127 146 1,100 -1,080 Descending FlightAware ADS-B (KBRY)
11:31PM 38.1667 -85.7333 208° Southwest  Level FlightAware Approximate
11:32PM 38.1741 -85.7365 208° Southwest  Level Estimated